sensor_id;sensor_type;location;lat;lon;timestamp;P1;durP1;ratioP1;P2;durP2;ratioP2
8435;SDS011;4255;48.730;9.156;2023-03-20T00:02:58;7.95;;;6.65;;
8435;SDS011;4255;48.730;9.156;2023-03-20T00:05:24;6.22;;;5.72;;
8435;SDS011;4255;48.730;9.156;2023-03-20T00:07:52;6.32;;;5.82;;
8435;SDS011;4255;48.730;9.156;2023-03-20T00:10:18;6.97;;;6.30;;
8435;SDS011;4255;48.730;9.156;2023-03-20T00:12:46;6.63;;;5.93;;
8435;SDS011;4255;48.730;9.156;2023-03-20T00:15:32;7.57;;;6.00;;
8435;SDS011;4255;48.730;9.156;2023-03-20T00:18:01;7.15;;;6.55;;
8435;SDS011;4255;48.730;9.156;2023-03-20T00:20:28;8.77;;;6.80;;
8435;SDS011;4255;48.730;9.156;2023-03-20T00:22:53;7.70;;;7.07;;
8435;SDS011;4255;48.730;9.156;2023-03-20T00:25:20;7.22;;;6.25;;
8435;SDS011;4255;48.730;9.156;2023-03-20T00:27:48;8.52;;;6.55;;
8435;SDS011;4255;48.730;9.156;2023-03-20T00:30:27;8.80;;;7.13;;
8435;SDS011;4255;48.730;9.156;2023-03-20T00:32:55;6.43;;;5.90;;
8435;SDS011;4255;48.730;9.156;2023-03-20T00:35:28;7.82;;;7.05;;
8435;SDS011;4255;48.730;9.156;2023-03-20T00:37:56;6.53;;;5.93;;
8435;SDS011;4255;48.730;9.156;2023-03-20T00:40:26;9.13;;;7.13;;
8435;SDS011;4255;48.730;9.156;2023-03-20T00:42:57;9.32;;;7.15;;
8435;SDS011;4255;48.730;9.156;2023-03-20T00:45:24;8.35;;;7.50;;
8435;SDS011;4255;48.730;9.156;2023-03-20T00:47:50;7.30;;;6.68;;
8435;SDS011;4255;48.730;9.156;2023-03-20T00:50:18;8.10;;;7.40;;
8435;SDS011;4255;48.730;9.156;2023-03-20T00:52:46;6.63;;;6.13;;
8435;SDS011;4255;48.730;9.156;2023-03-20T00:55:12;8.38;;;7.65;;
8435;SDS011;4255;48.730;9.156;2023-03-20T00:57:45;7.82;;;6.95;;
8435;SDS011;4255;48.730;9.156;2023-03-20T01:02:52;8.48;;;7.57;;
8435;SDS011;4255;48.730;9.156;2023-03-20T01:05:20;7.90;;;7.10;;
8435;SDS011;4255;48.730;9.156;2023-03-20T01:07:46;7.20;;;6.60;;
8435;SDS011;4255;48.730;9.156;2023-03-20T01:10:12;7.22;;;6.53;;
8435;SDS011;4255;48.730;9.156;2023-03-20T01:12:39;7.82;;;7.10;;
8435;SDS011;4255;48.730;9.156;2023-03-20T01:15:24;6.80;;;6.20;;
8435;SDS011;4255;48.730;9.156;2023-03-20T01:17:55;8.50;;;5.68;;
8435;SDS011;4255;48.730;9.156;2023-03-20T01:20:25;6.63;;;6.10;;
8435;SDS011;4255;48.730;9.156;2023-03-20T01:22:52;7.18;;;6.63;;
8435;SDS011;4255;48.730;9.156;2023-03-20T01:25:18;6.72;;;6.05;;
8435;SDS011;4255;48.730;9.156;2023-03-20T01:27:46;7.60;;;6.68;;
8435;SDS011;4255;48.730;9.156;2023-03-20T01:30:21;6.90;;;6.20;;
8435;SDS011;4255;48.730;9.156;2023-03-20T01:32:52;6.40;;;5.80;;
8435;SDS011;4255;48.730;9.156;2023-03-20T01:35:22;5.82;;;5.32;;
8435;SDS011;4255;48.730;9.156;2023-03-20T01:37:49;5.60;;;5.20;;
8435;SDS011;4255;48.730;9.156;2023-03-20T01:43:04;6.13;;;5.53;;
8435;SDS011;4255;48.730;9.156;2023-03-20T01:45:56;6.00;;;5.50;;
8435;SDS011;4255;48.730;9.156;2023-03-20T01:48:31;4.97;;;4.57;;
8435;SDS011;4255;48.730;9.156;2023-03-20T01:51:21;7.47;;;4.85;;
8435;SDS011;4255;48.730;9.156;2023-03-20T01:53:48;5.25;;;4.75;;
8435;SDS011;4255;48.730;9.156;2023-03-20T01:56:22;4.75;;;4.35;;
8435;SDS011;4255;48.730;9.156;2023-03-20T01:58:53;4.55;;;4.18;;
8435;SDS011;4255;48.730;9.156;2023-03-20T02:01:24;4.43;;;4.13;;
8435;SDS011;4255;48.730;9.156;2023-03-20T02:03:51;4.20;;;3.90;;
8435;SDS011;4255;48.730;9.156;2023-03-20T02:06:18;3.80;;;3.50;;
8435;SDS011;4255;48.730;9.156;2023-03-20T02:08:46;4.50;;;3.75;;
8435;SDS011;4255;48.730;9.156;2023-03-20T02:11:14;3.55;;;3.35;;
8435;SDS011;4255;48.730;9.156;2023-03-20T02:13:42;3.83;;;3.53;;
8435;SDS011;4255;48.730;9.156;2023-03-20T02:16:09;4.57;;;3.58;;
8435;SDS011;4255;48.730;9.156;2023-03-20T02:18:40;3.10;;;2.90;;
8435;SDS011;4255;48.730;9.156;2023-03-20T02:41:11;2.13;;;2.00;;
8435;SDS011;4255;48.730;9.156;2023-03-20T02:48:54;2.42;;;2.03;;
8435;SDS011;4255;48.730;9.156;2023-03-20T02:51:36;1.92;;;1.83;;
8435;SDS011;4255;48.730;9.156;2023-03-20T03:02:20;1.85;;;1.75;;
8435;SDS011;4255;48.730;9.156;2023-03-20T03:04:54;1.80;;;1.70;;
8435;SDS011;4255;48.730;9.156;2023-03-20T03:07:24;2.00;;;1.50;;
8435;SDS011;4255;48.730;9.156;2023-03-20T03:10:04;2.00;;;1.90;;
8435;SDS011;4255;48.730;9.156;2023-03-20T03:12:35;1.73;;;1.63;;
8435;SDS011;4255;48.730;9.156;2023-03-20T03:17:52;1.90;;;1.80;;
8435;SDS011;4255;48.730;9.156;2023-03-20T03:20:27;1.60;;;1.50;;
8435;SDS011;4255;48.730;9.156;2023-03-20T03:22:56;3.10;;;2.00;;
8435;SDS011;4255;48.730;9.156;2023-03-20T03:25:23;1.70;;;1.60;;
8435;SDS011;4255;48.730;9.156;2023-03-20T03:28:06;1.77;;;1.67;;
8435;SDS011;4255;48.730;9.156;2023-03-20T03:30:46;1.80;;;1.70;;
8435;SDS011;4255;48.730;9.156;2023-03-20T03:35:43;2.00;;;1.90;;
8435;SDS011;4255;48.730;9.156;2023-03-20T03:44:04;2.10;;;1.90;;
8435;SDS011;4255;48.730;9.156;2023-03-20T03:49:21;2.30;;;2.15;;
8435;SDS011;4255;48.730;9.156;2023-03-20T03:51:58;2.50;;;2.30;;
8435;SDS011;4255;48.730;9.156;2023-03-20T03:54:32;1.85;;;1.75;;
8435;SDS011;4255;48.730;9.156;2023-03-20T03:57:02;1.88;;;1.80;;
8435;SDS011;4255;48.730;9.156;2023-03-20T03:59:34;2.00;;;1.90;;
8435;SDS011;4255;48.730;9.156;2023-03-20T04:02:02;2.20;;;2.10;;
8435;SDS011;4255;48.730;9.156;2023-03-20T04:04:32;2.17;;;2.08;;
8435;SDS011;4255;48.730;9.156;2023-03-20T04:07:00;2.15;;;2.05;;
8435;SDS011;4255;48.730;9.156;2023-03-20T04:09:26;2.27;;;2.13;;
8435;SDS011;4255;48.730;9.156;2023-03-20T04:11:53;1.90;;;1.80;;
8435;SDS011;4255;48.730;9.156;2023-03-20T04:14:18;1.87;;;1.77;;
8435;SDS011;4255;48.730;9.156;2023-03-20T04:16:45;2.20;;;2.10;;
8435;SDS011;4255;48.730;9.156;2023-03-20T04:19:10;1.97;;;1.87;;
8435;SDS011;4255;48.730;9.156;2023-03-20T04:21:36;1.60;;;1.50;;
8435;SDS011;4255;48.730;9.156;2023-03-20T04:24:02;2.30;;;2.20;;
8435;SDS011;4255;48.730;9.156;2023-03-20T04:26:28;2.90;;;2.35;;
8435;SDS011;4255;48.730;9.156;2023-03-20T04:28:54;1.80;;;1.63;;
8435;SDS011;4255;48.730;9.156;2023-03-20T04:31:20;3.53;;;1.87;;
8435;SDS011;4255;48.730;9.156;2023-03-20T04:33:45;2.10;;;2.00;;
8435;SDS011;4255;48.730;9.156;2023-03-20T04:36:11;2.53;;;2.43;;
8435;SDS011;4255;48.730;9.156;2023-03-20T04:38:37;2.53;;;2.42;;
8435;SDS011;4255;48.730;9.156;2023-03-20T04:41:03;2.90;;;2.70;;
8435;SDS011;4255;48.730;9.156;2023-03-20T04:43:29;2.10;;;2.00;;
8435;SDS011;4255;48.730;9.156;2023-03-20T04:45:55;1.77;;;1.67;;
8435;SDS011;4255;48.730;9.156;2023-03-20T04:48:21;2.03;;;1.93;;
8435;SDS011;4255;48.730;9.156;2023-03-20T04:50:47;1.73;;;1.63;;
8435;SDS011;4255;48.730;9.156;2023-03-20T04:53:14;2.17;;;2.08;;
8435;SDS011;4255;48.730;9.156;2023-03-20T04:55:41;2.25;;;2.05;;
8435;SDS011;4255;48.730;9.156;2023-03-20T04:58:07;2.03;;;1.93;;
8435;SDS011;4255;48.730;9.156;2023-03-20T05:00:32;1.93;;;1.83;;
8435;SDS011;4255;48.730;9.156;2023-03-20T05:02:58;2.17;;;2.07;;
8435;SDS011;4255;48.730;9.156;2023-03-20T05:05:24;2.27;;;2.17;;
8435;SDS011;4255;48.730;9.156;2023-03-20T05:07:50;2.70;;;2.50;;
8435;SDS011;4255;48.730;9.156;2023-03-20T05:10:16;2.40;;;2.30;;
8435;SDS011;4255;48.730;9.156;2023-03-20T05:12:42;2.40;;;2.20;;
8435;SDS011;4255;48.730;9.156;2023-03-20T05:15:08;3.77;;;3.57;;
8435;SDS011;4255;48.730;9.156;2023-03-20T05:17:34;3.70;;;3.50;;
8435;SDS011;4255;48.730;9.156;2023-03-20T05:20:00;3.75;;;2.45;;
8435;SDS011;4255;48.730;9.156;2023-03-20T05:22:26;2.43;;;2.33;;
8435;SDS011;4255;48.730;9.156;2023-03-20T05:24:51;2.70;;;2.57;;
8435;SDS011;4255;48.730;9.156;2023-03-20T05:27:17;2.78;;;2.60;;
8435;SDS011;4255;48.730;9.156;2023-03-20T05:29:43;3.47;;;3.27;;
8435;SDS011;4255;48.730;9.156;2023-03-20T05:32:09;2.67;;;2.50;;
8435;SDS011;4255;48.730;9.156;2023-03-20T05:34:36;2.40;;;2.30;;
8435;SDS011;4255;48.730;9.156;2023-03-20T05:37:02;3.10;;;2.80;;
8435;SDS011;4255;48.730;9.156;2023-03-20T05:39:28;3.20;;;3.00;;
8435;SDS011;4255;48.730;9.156;2023-03-20T05:41:54;5.27;;;3.27;;
8435;SDS011;4255;48.730;9.156;2023-03-20T05:44:20;3.37;;;3.17;;
8435;SDS011;4255;48.730;9.156;2023-03-20T05:46:45;2.30;;;2.20;;
8435;SDS011;4255;48.730;9.156;2023-03-20T05:49:11;2.70;;;2.60;;
8435;SDS011;4255;48.730;9.156;2023-03-20T05:51:36;3.10;;;2.90;;
8435;SDS011;4255;48.730;9.156;2023-03-20T05:54:02;3.40;;;3.10;;
8435;SDS011;4255;48.730;9.156;2023-03-20T05:56:28;3.60;;;3.00;;
8435;SDS011;4255;48.730;9.156;2023-03-20T05:58:53;3.42;;;3.20;;
8435;SDS011;4255;48.730;9.156;2023-03-20T06:01:19;3.60;;;3.30;;
8435;SDS011;4255;48.730;9.156;2023-03-20T06:03:48;2.80;;;2.60;;
8435;SDS011;4255;48.730;9.156;2023-03-20T06:06:14;3.10;;;2.80;;
8435;SDS011;4255;48.730;9.156;2023-03-20T06:08:41;2.53;;;2.40;;
8435;SDS011;4255;48.730;9.156;2023-03-20T06:11:08;3.10;;;2.90;;
8435;SDS011;4255;48.730;9.156;2023-03-20T06:13:34;5.13;;;4.47;;
8435;SDS011;4255;48.730;9.156;2023-03-20T06:16:00;6.53;;;5.47;;
8435;SDS011;4255;48.730;9.156;2023-03-20T06:18:26;5.67;;;5.07;;
8435;SDS011;4255;48.730;9.156;2023-03-20T06:20:53;4.80;;;4.35;;
8435;SDS011;4255;48.730;9.156;2023-03-20T06:23:19;4.65;;;4.25;;
8435;SDS011;4255;48.730;9.156;2023-03-20T06:25:45;5.13;;;3.70;;
8435;SDS011;4255;48.730;9.156;2023-03-20T06:28:11;4.05;;;3.75;;
8435;SDS011;4255;48.730;9.156;2023-03-20T06:30:37;5.80;;;5.17;;
8435;SDS011;4255;48.730;9.156;2023-03-20T06:33:06;6.20;;;5.40;;
8435;SDS011;4255;48.730;9.156;2023-03-20T06:35:32;5.53;;;4.72;;
8435;SDS011;4255;48.730;9.156;2023-03-20T06:37:58;5.40;;;3.97;;
8435;SDS011;4255;48.730;9.156;2023-03-20T06:40:23;3.23;;;3.03;;
8435;SDS011;4255;48.730;9.156;2023-03-20T06:42:51;3.00;;;2.80;;
8435;SDS011;4255;48.730;9.156;2023-03-20T06:45:17;3.20;;;2.90;;
8435;SDS011;4255;48.730;9.156;2023-03-20T06:47:43;3.53;;;3.23;;
8435;SDS011;4255;48.730;9.156;2023-03-20T06:50:08;3.00;;;2.80;;
8435;SDS011;4255;48.730;9.156;2023-03-20T06:52:34;3.20;;;2.90;;
8435;SDS011;4255;48.730;9.156;2023-03-20T06:55:00;2.60;;;2.40;;
8435;SDS011;4255;48.730;9.156;2023-03-20T06:57:26;7.57;;;3.90;;
8435;SDS011;4255;48.730;9.156;2023-03-20T06:59:52;3.50;;;3.30;;
8435;SDS011;4255;48.730;9.156;2023-03-20T07:02:17;4.30;;;3.90;;
8435;SDS011;4255;48.730;9.156;2023-03-20T07:04:44;5.35;;;3.00;;
8435;SDS011;4255;48.730;9.156;2023-03-20T07:07:09;3.40;;;3.10;;
8435;SDS011;4255;48.730;9.156;2023-03-20T07:09:35;2.70;;;2.50;;
8435;SDS011;4255;48.730;9.156;2023-03-20T07:12:01;2.73;;;2.53;;
8435;SDS011;4255;48.730;9.156;2023-03-20T07:14:26;2.70;;;2.50;;
8435;SDS011;4255;48.730;9.156;2023-03-20T07:16:52;2.77;;;2.57;;
8435;SDS011;4255;48.730;9.156;2023-03-20T07:19:20;3.00;;;2.80;;
8435;SDS011;4255;48.730;9.156;2023-03-20T07:21:46;3.92;;;2.50;;
8435;SDS011;4255;48.730;9.156;2023-03-20T07:24:12;4.70;;;3.37;;
8435;SDS011;4255;48.730;9.156;2023-03-20T07:26:38;3.03;;;2.83;;
8435;SDS011;4255;48.730;9.156;2023-03-20T07:29:05;3.40;;;3.10;;
8435;SDS011;4255;48.730;9.156;2023-03-20T07:31:30;2.73;;;2.60;;
8435;SDS011;4255;48.730;9.156;2023-03-20T07:33:56;3.03;;;2.83;;
8435;SDS011;4255;48.730;9.156;2023-03-20T07:36:22;3.83;;;2.67;;
8435;SDS011;4255;48.730;9.156;2023-03-20T07:38:48;4.40;;;2.60;;
8435;SDS011;4255;48.730;9.156;2023-03-20T07:41:13;3.00;;;2.80;;
8435;SDS011;4255;48.730;9.156;2023-03-20T07:43:39;5.00;;;4.33;;
8435;SDS011;4255;48.730;9.156;2023-03-20T07:46:05;3.23;;;2.90;;
8435;SDS011;4255;48.730;9.156;2023-03-20T07:48:32;4.00;;;2.83;;
8435;SDS011;4255;48.730;9.156;2023-03-20T07:50:59;4.60;;;2.67;;
8435;SDS011;4255;48.730;9.156;2023-03-20T07:53:24;4.00;;;3.00;;
8435;SDS011;4255;48.730;9.156;2023-03-20T07:55:50;3.60;;;3.30;;
8435;SDS011;4255;48.730;9.156;2023-03-20T07:58:15;4.47;;;3.37;;
8435;SDS011;4255;48.730;9.156;2023-03-20T08:00:41;3.50;;;3.30;;
8435;SDS011;4255;48.730;9.156;2023-03-20T08:03:08;3.33;;;3.03;;
8435;SDS011;4255;48.730;9.156;2023-03-20T08:05:34;3.28;;;2.97;;
8435;SDS011;4255;48.730;9.156;2023-03-20T08:08:00;2.83;;;2.60;;
8435;SDS011;4255;48.730;9.156;2023-03-20T08:10:26;2.60;;;2.47;;
8435;SDS011;4255;48.730;9.156;2023-03-20T08:12:52;5.97;;;3.10;;
8435;SDS011;4255;48.730;9.156;2023-03-20T08:15:18;3.00;;;2.80;;
8435;SDS011;4255;48.730;9.156;2023-03-20T08:17:44;3.10;;;2.80;;
8435;SDS011;4255;48.730;9.156;2023-03-20T08:20:10;2.60;;;2.40;;
8435;SDS011;4255;48.730;9.156;2023-03-20T08:22:38;3.17;;;2.97;;
8435;SDS011;4255;48.730;9.156;2023-03-20T08:25:04;2.70;;;2.50;;
8435;SDS011;4255;48.730;9.156;2023-03-20T08:27:30;2.30;;;2.20;;
8435;SDS011;4255;48.730;9.156;2023-03-20T08:29:55;2.60;;;2.37;;
8435;SDS011;4255;48.730;9.156;2023-03-20T08:32:21;2.87;;;2.60;;
8435;SDS011;4255;48.730;9.156;2023-03-20T08:34:47;2.93;;;2.73;;
8435;SDS011;4255;48.730;9.156;2023-03-20T08:37:12;2.53;;;2.33;;
8435;SDS011;4255;48.730;9.156;2023-03-20T08:39:39;2.30;;;2.20;;
8435;SDS011;4255;48.730;9.156;2023-03-20T08:42:05;3.30;;;3.10;;
8435;SDS011;4255;48.730;9.156;2023-03-20T08:44:31;3.40;;;3.10;;
8435;SDS011;4255;48.730;9.156;2023-03-20T08:46:57;3.33;;;3.03;;
8435;SDS011;4255;48.730;9.156;2023-03-20T08:49:23;5.73;;;2.77;;
8435;SDS011;4255;48.730;9.156;2023-03-20T08:51:48;2.83;;;2.63;;
8435;SDS011;4255;48.730;9.156;2023-03-20T08:54:14;2.70;;;2.50;;
8435;SDS011;4255;48.730;9.156;2023-03-20T08:56:42;3.13;;;2.83;;
8435;SDS011;4255;48.730;9.156;2023-03-20T08:59:08;3.37;;;3.00;;
8435;SDS011;4255;48.730;9.156;2023-03-20T09:01:34;2.70;;;2.50;;
8435;SDS011;4255;48.730;9.156;2023-03-20T09:03:59;2.00;;;1.90;;
8435;SDS011;4255;48.730;9.156;2023-03-20T09:06:25;2.83;;;2.63;;
8435;SDS011;4255;48.730;9.156;2023-03-20T09:08:51;2.90;;;2.60;;
8435;SDS011;4255;48.730;9.156;2023-03-20T09:11:18;2.60;;;2.40;;
8435;SDS011;4255;48.730;9.156;2023-03-20T09:13:44;2.50;;;2.30;;
8435;SDS011;4255;48.730;9.156;2023-03-20T09:16:10;2.67;;;2.47;;
8435;SDS011;4255;48.730;9.156;2023-03-20T09:18:35;2.80;;;2.50;;
8435;SDS011;4255;48.730;9.156;2023-03-20T09:21:01;4.83;;;3.27;;
8435;SDS011;4255;48.730;9.156;2023-03-20T09:23:27;2.67;;;2.43;;
8435;SDS011;4255;48.730;9.156;2023-03-20T09:25:52;3.13;;;2.83;;
8435;SDS011;4255;48.730;9.156;2023-03-20T09:28:18;2.40;;;2.20;;
8435;SDS011;4255;48.730;9.156;2023-03-20T09:30:43;6.30;;;2.50;;
8435;SDS011;4255;48.730;9.156;2023-03-20T09:33:10;2.77;;;2.57;;
8435;SDS011;4255;48.730;9.156;2023-03-20T09:35:36;4.63;;;2.87;;
8435;SDS011;4255;48.730;9.156;2023-03-20T09:38:02;2.77;;;2.57;;
8435;SDS011;4255;48.730;9.156;2023-03-20T09:40:28;3.83;;;2.40;;
8435;SDS011;4255;48.730;9.156;2023-03-20T09:43:01;4.80;;;3.07;;
8435;SDS011;4255;48.730;9.156;2023-03-20T09:48:26;2.70;;;2.60;;
8435;SDS011;4255;48.730;9.156;2023-03-20T09:53:55;2.53;;;2.33;;
8435;SDS011;4255;48.730;9.156;2023-03-20T09:56:31;2.47;;;2.37;;
8435;SDS011;4255;48.730;9.156;2023-03-20T09:58:57;3.30;;;3.00;;
8435;SDS011;4255;48.730;9.156;2023-03-20T10:01:26;4.03;;;2.60;;
8435;SDS011;4255;48.730;9.156;2023-03-20T10:04:00;3.07;;;2.77;;
8435;SDS011;4255;48.730;9.156;2023-03-20T10:06:32;2.80;;;2.60;;
8435;SDS011;4255;48.730;9.156;2023-03-20T10:08:59;3.00;;;2.70;;
8435;SDS011;4255;48.730;9.156;2023-03-20T10:16:49;3.43;;;2.60;;
8435;SDS011;4255;48.730;9.156;2023-03-20T10:22:22;2.80;;;2.27;;
8435;SDS011;4255;48.730;9.156;2023-03-20T10:24:55;2.63;;;2.23;;
8435;SDS011;4255;48.730;9.156;2023-03-20T10:30:24;3.17;;;2.97;;
8435;SDS011;4255;48.730;9.156;2023-03-20T10:35:47;2.40;;;2.20;;
8435;SDS011;4255;48.730;9.156;2023-03-20T10:39:13;2.67;;;2.47;;
8435;SDS011;4255;48.730;9.156;2023-03-20T10:41:21;2.20;;;2.10;;
8435;SDS011;4255;48.730;9.156;2023-03-20T10:43:52;2.00;;;1.90;;
8435;SDS011;4255;48.730;9.156;2023-03-20T10:46:26;2.20;;;2.00;;
8435;SDS011;4255;48.730;9.156;2023-03-20T10:49:02;2.90;;;2.57;;
8435;SDS011;4255;48.730;9.156;2023-03-20T10:51:38;3.20;;;2.17;;
8435;SDS011;4255;48.730;9.156;2023-03-20T10:54:05;2.47;;;2.30;;
8435;SDS011;4255;48.730;9.156;2023-03-20T10:56:45;4.10;;;2.47;;
8435;SDS011;4255;48.730;9.156;2023-03-20T10:59:21;2.17;;;2.03;;
8435;SDS011;4255;48.730;9.156;2023-03-20T11:01:50;2.13;;;1.93;;
8435;SDS011;4255;48.730;9.156;2023-03-20T11:04:15;2.33;;;2.23;;
8435;SDS011;4255;48.730;9.156;2023-03-20T11:09:34;2.67;;;2.43;;
8435;SDS011;4255;48.730;9.156;2023-03-20T11:12:00;2.87;;;2.67;;
8435;SDS011;4255;48.730;9.156;2023-03-20T11:14:36;3.23;;;2.50;;
8435;SDS011;4255;48.730;9.156;2023-03-20T11:17:04;2.77;;;2.57;;
8435;SDS011;4255;48.730;9.156;2023-03-20T11:19:34;7.73;;;2.90;;
8435;SDS011;4255;48.730;9.156;2023-03-20T11:24:46;4.67;;;2.90;;
8435;SDS011;4255;48.730;9.156;2023-03-20T11:27:16;8.27;;;3.07;;
8435;SDS011;4255;48.730;9.156;2023-03-20T11:29:47;3.20;;;2.40;;
8435;SDS011;4255;48.730;9.156;2023-03-20T11:37:47;3.23;;;2.70;;
8435;SDS011;4255;48.730;9.156;2023-03-20T11:40:22;3.67;;;2.43;;
8435;SDS011;4255;48.730;9.156;2023-03-20T11:45:26;2.93;;;2.70;;
8435;SDS011;4255;48.730;9.156;2023-03-20T11:48:01;5.60;;;4.00;;
8435;SDS011;4255;48.730;9.156;2023-03-20T11:53:01;5.13;;;4.63;;
8435;SDS011;4255;48.730;9.156;2023-03-20T11:55:29;6.10;;;5.43;;
8435;SDS011;4255;48.730;9.156;2023-03-20T11:58:00;5.83;;;4.87;;
8435;SDS011;4255;48.730;9.156;2023-03-20T12:00:38;6.93;;;6.23;;
8435;SDS011;4255;48.730;9.156;2023-03-20T12:06:01;53.90;;;9.67;;
8435;SDS011;4255;48.730;9.156;2023-03-20T12:08:30;5.77;;;4.83;;
8435;SDS011;4255;48.730;9.156;2023-03-20T12:10:59;4.80;;;4.40;;
8435;SDS011;4255;48.730;9.156;2023-03-20T12:13:33;5.27;;;4.77;;
8435;SDS011;4255;48.730;9.156;2023-03-20T12:16:04;5.73;;;4.50;;
8435;SDS011;4255;48.730;9.156;2023-03-20T12:18:36;5.07;;;4.60;;
8435;SDS011;4255;48.730;9.156;2023-03-20T12:29:51;4.80;;;4.30;;
8435;SDS011;4255;48.730;9.156;2023-03-20T12:37:37;6.03;;;4.57;;
8435;SDS011;4255;48.730;9.156;2023-03-20T12:40:03;5.43;;;4.23;;
8435;SDS011;4255;48.730;9.156;2023-03-20T12:42:38;4.47;;;4.07;;
8435;SDS011;4255;48.730;9.156;2023-03-20T12:47:56;4.10;;;3.73;;
8435;SDS011;4255;48.730;9.156;2023-03-20T12:53:37;4.67;;;3.90;;
8435;SDS011;4255;48.730;9.156;2023-03-20T12:58:50;5.20;;;4.33;;
8435;SDS011;4255;48.730;9.156;2023-03-20T13:07:33;4.63;;;4.13;;
8435;SDS011;4255;48.730;9.156;2023-03-20T13:13:01;6.40;;;5.50;;
8435;SDS011;4255;48.730;9.156;2023-03-20T13:20:59;5.20;;;4.70;;
8435;SDS011;4255;48.730;9.156;2023-03-20T13:31:55;4.77;;;4.10;;
8435;SDS011;4255;48.730;9.156;2023-03-20T13:34:39;9.43;;;4.23;;
8435;SDS011;4255;48.730;9.156;2023-03-20T13:42:37;5.13;;;3.90;;
8435;SDS011;4255;48.730;9.156;2023-03-20T13:45:18;5.20;;;4.70;;
8435;SDS011;4255;48.730;9.156;2023-03-20T13:47:50;6.53;;;4.10;;
8435;SDS011;4255;48.730;9.156;2023-03-20T13:52:57;4.73;;;4.30;;
8435;SDS011;4255;48.730;9.156;2023-03-20T14:01:17;5.80;;;4.60;;
8435;SDS011;4255;48.730;9.156;2023-03-20T14:03:49;4.97;;;4.50;;
8435;SDS011;4255;48.730;9.156;2023-03-20T14:08:52;4.87;;;4.47;;
8435;SDS011;4255;48.730;9.156;2023-03-20T14:14:13;5.40;;;4.50;;
8435;SDS011;4255;48.730;9.156;2023-03-20T14:16:48;5.60;;;4.80;;
8435;SDS011;4255;48.730;9.156;2023-03-20T14:19:25;5.17;;;3.70;;
8435;SDS011;4255;48.730;9.156;2023-03-20T14:21:54;3.60;;;3.30;;
8435;SDS011;4255;48.730;9.156;2023-03-20T14:24:21;4.10;;;3.80;;
8435;SDS011;4255;48.730;9.156;2023-03-20T14:26:49;4.47;;;4.07;;
8435;SDS011;4255;48.730;9.156;2023-03-20T14:29:20;7.47;;;3.40;;
8435;SDS011;4255;48.730;9.156;2023-03-20T14:37:26;3.67;;;3.37;;
8435;SDS011;4255;48.730;9.156;2023-03-20T14:39:53;4.60;;;4.00;;
8435;SDS011;4255;48.730;9.156;2023-03-20T14:42:42;3.50;;;3.20;;
8435;SDS011;4255;48.730;9.156;2023-03-20T14:50:25;3.70;;;3.40;;
8435;SDS011;4255;48.730;9.156;2023-03-20T14:57:55;3.67;;;3.27;;
8435;SDS011;4255;48.730;9.156;2023-03-20T15:02:50;3.57;;;2.43;;
8435;SDS011;4255;48.730;9.156;2023-03-20T15:05:28;5.30;;;3.33;;
8435;SDS011;4255;48.730;9.156;2023-03-20T15:07:57;2.83;;;2.70;;
8435;SDS011;4255;48.730;9.156;2023-03-20T15:10:35;2.90;;;2.70;;
8435;SDS011;4255;48.730;9.156;2023-03-20T15:13:09;5.03;;;2.40;;
8435;SDS011;4255;48.730;9.156;2023-03-20T15:15:37;3.83;;;2.67;;
8435;SDS011;4255;48.730;9.156;2023-03-20T15:18:15;2.40;;;2.20;;
8435;SDS011;4255;48.730;9.156;2023-03-20T15:20:42;2.90;;;2.50;;
8435;SDS011;4255;48.730;9.156;2023-03-20T15:23:08;3.80;;;2.90;;
8435;SDS011;4255;48.730;9.156;2023-03-20T15:28:28;2.20;;;2.10;;
8435;SDS011;4255;48.730;9.156;2023-03-20T15:30:56;1.57;;;1.47;;
8435;SDS011;4255;48.730;9.156;2023-03-20T15:33:26;2.83;;;1.90;;
8435;SDS011;4255;48.730;9.156;2023-03-20T15:35:55;2.20;;;1.80;;
8435;SDS011;4255;48.730;9.156;2023-03-20T15:38:21;2.43;;;1.90;;
8435;SDS011;4255;48.730;9.156;2023-03-20T15:40:56;2.03;;;1.93;;
8435;SDS011;4255;48.730;9.156;2023-03-20T15:43:23;1.97;;;1.87;;
8435;SDS011;4255;48.730;9.156;2023-03-20T15:45:50;2.00;;;1.90;;
8435;SDS011;4255;48.730;9.156;2023-03-20T15:48:20;3.00;;;1.90;;
8435;SDS011;4255;48.730;9.156;2023-03-20T15:50:50;2.13;;;1.90;;
8435;SDS011;4255;48.730;9.156;2023-03-20T15:53:20;1.90;;;1.80;;
8435;SDS011;4255;48.730;9.156;2023-03-20T15:56:05;2.30;;;2.10;;
8435;SDS011;4255;48.730;9.156;2023-03-20T15:58:38;2.70;;;2.00;;
8435;SDS011;4255;48.730;9.156;2023-03-20T16:01:05;5.53;;;2.00;;
8435;SDS011;4255;48.730;9.156;2023-03-20T16:03:33;2.13;;;2.00;;
8435;SDS011;4255;48.730;9.156;2023-03-20T16:06:02;1.87;;;1.77;;
8435;SDS011;4255;48.730;9.156;2023-03-20T16:08:32;2.00;;;1.90;;
8435;SDS011;4255;48.730;9.156;2023-03-20T16:11:00;2.20;;;2.10;;
8435;SDS011;4255;48.730;9.156;2023-03-20T16:13:27;3.70;;;2.37;;
8435;SDS011;4255;48.730;9.156;2023-03-20T16:15:57;2.50;;;2.13;;
8435;SDS011;4255;48.730;9.156;2023-03-20T16:18:24;4.63;;;2.23;;
8435;SDS011;4255;48.730;9.156;2023-03-20T16:20:52;4.13;;;2.33;;
8435;SDS011;4255;48.730;9.156;2023-03-20T16:23:26;2.57;;;2.40;;
8435;SDS011;4255;48.730;9.156;2023-03-20T16:26:04;2.30;;;2.10;;
8435;SDS011;4255;48.730;9.156;2023-03-20T16:28:34;3.03;;;2.63;;
8435;SDS011;4255;48.730;9.156;2023-03-20T16:31:19;3.10;;;2.90;;
8435;SDS011;4255;48.730;9.156;2023-03-20T16:33:49;2.53;;;2.37;;
8435;SDS011;4255;48.730;9.156;2023-03-20T16:36:16;4.43;;;2.40;;
8435;SDS011;4255;48.730;9.156;2023-03-20T16:43:51;5.40;;;2.47;;
8435;SDS011;4255;48.730;9.156;2023-03-20T16:46:19;2.63;;;2.43;;
8435;SDS011;4255;48.730;9.156;2023-03-20T16:48:46;2.30;;;2.10;;
8435;SDS011;4255;48.730;9.156;2023-03-20T16:51:15;2.80;;;2.60;;
8435;SDS011;4255;48.730;9.156;2023-03-20T16:53:48;2.50;;;2.37;;
8435;SDS011;4255;48.730;9.156;2023-03-20T16:56:36;2.53;;;2.37;;
8435;SDS011;4255;48.730;9.156;2023-03-20T16:59:08;2.20;;;2.00;;
8435;SDS011;4255;48.730;9.156;2023-03-20T17:01:36;2.57;;;2.37;;
8435;SDS011;4255;48.730;9.156;2023-03-20T17:07:11;2.80;;;2.60;;
8435;SDS011;4255;48.730;9.156;2023-03-20T17:09:33;3.60;;;3.30;;
8435;SDS011;4255;48.730;9.156;2023-03-20T17:12:16;2.00;;;1.90;;
8435;SDS011;4255;48.730;9.156;2023-03-20T17:14:42;2.60;;;2.40;;
8435;SDS011;4255;48.730;9.156;2023-03-20T17:17:12;2.87;;;2.40;;
8435;SDS011;4255;48.730;9.156;2023-03-20T17:19:42;2.47;;;2.33;;
8435;SDS011;4255;48.730;9.156;2023-03-20T17:22:18;2.07;;;1.97;;
8435;SDS011;4255;48.730;9.156;2023-03-20T17:24:46;2.83;;;2.63;;
8435;SDS011;4255;48.730;9.156;2023-03-20T17:27:12;2.97;;;2.23;;
8435;SDS011;4255;48.730;9.156;2023-03-20T17:29:38;2.30;;;2.20;;
8435;SDS011;4255;48.730;9.156;2023-03-20T17:32:14;3.40;;;3.10;;
8435;SDS011;4255;48.730;9.156;2023-03-20T17:34:41;3.30;;;2.60;;
8435;SDS011;4255;48.730;9.156;2023-03-20T17:37:28;2.97;;;2.17;;
8435;SDS011;4255;48.730;9.156;2023-03-20T17:39:53;2.90;;;2.70;;
8435;SDS011;4255;48.730;9.156;2023-03-20T17:42:20;3.10;;;2.80;;
8435;SDS011;4255;48.730;9.156;2023-03-20T17:44:54;2.75;;;2.60;;
8435;SDS011;4255;48.730;9.156;2023-03-20T17:47:24;3.05;;;2.75;;
8435;SDS011;4255;48.730;9.156;2023-03-20T17:49:51;3.28;;;2.75;;
8435;SDS011;4255;48.730;9.156;2023-03-20T17:52:19;6.03;;;2.90;;
8435;SDS011;4255;48.730;9.156;2023-03-20T17:54:46;2.80;;;2.60;;
8435;SDS011;4255;48.730;9.156;2023-03-20T17:57:17;4.57;;;2.88;;
8435;SDS011;4255;48.730;9.156;2023-03-20T17:59:51;2.80;;;2.60;;
8435;SDS011;4255;48.730;9.156;2023-03-20T18:02:17;3.30;;;3.03;;
8435;SDS011;4255;48.730;9.156;2023-03-20T18:04:44;7.35;;;3.47;;
8435;SDS011;4255;48.730;9.156;2023-03-20T18:07:10;3.10;;;2.90;;
8435;SDS011;4255;48.730;9.156;2023-03-20T18:09:36;2.53;;;2.33;;
8435;SDS011;4255;48.730;9.156;2023-03-20T18:12:03;3.83;;;2.88;;
8435;SDS011;4255;48.730;9.156;2023-03-20T18:14:29;3.30;;;3.00;;
8435;SDS011;4255;48.730;9.156;2023-03-20T18:16:54;3.93;;;3.30;;
8435;SDS011;4255;48.730;9.156;2023-03-20T18:19:22;3.17;;;2.87;;
8435;SDS011;4255;48.730;9.156;2023-03-20T18:21:50;3.10;;;2.90;;
8435;SDS011;4255;48.730;9.156;2023-03-20T18:24:16;4.75;;;4.25;;
8435;SDS011;4255;48.730;9.156;2023-03-20T18:26:43;4.25;;;3.85;;
8435;SDS011;4255;48.730;9.156;2023-03-20T18:29:10;3.40;;;3.10;;
8435;SDS011;4255;48.730;9.156;2023-03-20T18:31:37;3.40;;;3.10;;
8435;SDS011;4255;48.730;9.156;2023-03-20T18:34:02;3.73;;;3.43;;